createdAt,value
2023-05-10T00:02:23.999Z,5.92
2023-05-10T00:04:50.647Z,5.92
2023-05-10T00:07:18.640Z,6.02
2023-05-10T00:09:45.458Z,5.85
2023-05-10T00:12:12.108Z,5.86
2023-05-10T00:14:38.802Z,5.90
2023-05-10T00:17:05.590Z,5.85
2023-05-10T00:19:32.360Z,5.87
2023-05-10T00:21:59.046Z,5.83
2023-05-10T00:24:26.197Z,5.83
2023-05-10T00:26:52.843Z,5.73
2023-05-10T00:29:19.591Z,5.70
2023-05-10T00:31:46.247Z,5.65
2023-05-10T00:34:13.182Z,5.60
2023-05-10T00:36:39.923Z,5.58
2023-05-10T00:39:07.164Z,5.67
2023-05-10T00:41:33.860Z,5.57
2023-05-10T00:44:00.649Z,5.38
2023-05-10T00:46:28.040Z,5.43
2023-05-10T00:48:55.093Z,5.55
2023-05-10T00:51:22.074Z,5.54
2023-05-10T00:53:50.188Z,5.54
2023-05-10T00:56:17.348Z,5.32
2023-05-10T00:58:44.379Z,5.39
2023-05-10T01:01:11.906Z,5.32
2023-05-10T01:03:40.423Z,5.52
2023-05-10T01:06:07.379Z,5.33
2023-05-10T01:08:34.883Z,5.29
2023-05-10T01:11:01.842Z,5.21
2023-05-10T01:13:38.407Z,5.32
2023-05-10T01:16:06.024Z,5.18
2023-05-10T01:18:36.185Z,5.24
2023-05-10T01:21:20.988Z,5.35
2023-05-10T01:23:59.595Z,5.22
2023-05-10T01:27:04.351Z,5.22
2023-05-10T01:29:53.404Z,5.20
2023-05-10T01:32:27.546Z,5.27
2023-05-10T01:35:09.384Z,5.13
2023-05-10T01:37:46.429Z,5.26
2023-05-10T01:40:26.632Z,5.32
2023-05-10T01:43:01.008Z,5.20
2023-05-10T01:45:42.648Z,5.10
2023-05-10T01:48:15.152Z,5.26
2023-05-10T01:50:45.905Z,5.08
2023-05-10T01:53:14.782Z,5.04
2023-05-10T01:55:48.001Z,4.98
2023-05-10T01:58:20.003Z,4.89
2023-05-10T02:00:50.668Z,4.87
2023-05-10T02:03:22.254Z,4.99
2023-05-10T02:05:51.753Z,5.17
2023-05-10T02:08:20.119Z,5.16
2023-05-10T02:10:48.114Z,5.15
2023-05-10T02:13:17.307Z,5.09
2023-05-10T02:15:50.701Z,5.05
2023-05-10T02:18:19.068Z,5.15
2023-05-10T02:20:48.135Z,5.15
2023-05-10T02:23:17.648Z,4.96
2023-05-10T02:25:46.931Z,4.99
2023-05-10T02:28:15.402Z,5.06
2023-05-10T02:30:42.660Z,5.04
2023-05-10T02:33:09.816Z,5.00
2023-05-10T02:35:38.330Z,4.96
2023-05-10T02:38:06.310Z,4.74
2023-05-10T02:40:34.938Z,4.59
2023-05-10T02:43:03.559Z,4.79
2023-05-10T02:45:32.294Z,5.01
2023-05-10T02:47:59.892Z,4.99
2023-05-10T02:50:29.136Z,4.85
2023-05-10T02:53:02.725Z,4.82
2023-05-10T02:55:34.010Z,4.88
2023-05-10T02:58:02.541Z,4.87
2023-05-10T03:00:29.798Z,4.90
2023-05-10T03:02:56.762Z,4.71
2023-05-10T03:05:23.510Z,4.73
2023-05-10T03:07:51.017Z,4.73
2023-05-10T03:10:19.538Z,4.81
2023-05-10T03:12:52.574Z,4.81
2023-05-10T03:15:31.890Z,4.90
2023-05-10T03:18:07.892Z,4.89
2023-05-10T03:20:40.298Z,4.96
2023-05-10T03:23:27.328Z,4.88
2023-05-10T03:25:54.680Z,4.98
2023-05-10T03:28:22.734Z,4.85
2023-05-10T03:30:51.239Z,4.67
2023-05-10T03:33:18.035Z,4.76
2023-05-10T03:35:46.769Z,4.80
2023-05-10T03:38:13.908Z,4.90
2023-05-10T03:40:40.788Z,4.73
2023-05-10T03:43:07.480Z,4.64
2023-05-10T03:45:34.241Z,4.79
2023-05-10T03:48:00.981Z,4.58
2023-05-10T03:50:27.873Z,4.54
2023-05-10T03:52:54.931Z,4.61
2023-05-10T03:55:21.772Z,4.67
2023-05-10T03:57:50.621Z,4.43
2023-05-10T04:00:17.834Z,4.53
2023-05-10T04:02:46.001Z,4.84
2023-05-10T04:05:13.658Z,4.91
2023-05-10T04:07:40.749Z,4.86
2023-05-10T04:10:08.795Z,4.96
2023-05-10T04:12:38.082Z,5.11
2023-05-10T04:15:05.624Z,5.28
2023-05-10T04:17:33.360Z,5.24
2023-05-10T04:20:00.223Z,5.23
2023-05-10T04:22:27.013Z,5.34
2023-05-10T04:24:53.622Z,5.23
2023-05-10T04:27:20.290Z,5.24
2023-05-10T04:29:46.994Z,5.20
2023-05-10T04:32:13.676Z,5.12
2023-05-10T04:34:40.446Z,5.10
2023-05-10T04:37:08.509Z,5.24
2023-05-10T04:39:36.192Z,5.47
2023-05-10T04:42:04.292Z,5.60
2023-05-10T04:44:31.067Z,5.49
2023-05-10T04:46:57.733Z,5.69
2023-05-10T04:49:24.484Z,5.89
2023-05-10T04:51:51.230Z,5.93
2023-05-10T04:54:17.852Z,5.89
2023-05-10T04:56:44.492Z,5.81
2023-05-10T04:59:11.601Z,5.85
2023-05-10T05:01:38.315Z,5.59
2023-05-10T05:04:06.436Z,5.72
2023-05-10T05:06:33.082Z,5.86
2023-05-10T05:08:59.707Z,5.62
2023-05-10T05:11:26.924Z,5.86
2023-05-10T05:13:53.627Z,5.87
2023-05-10T05:16:20.429Z,5.95
2023-05-10T05:18:47.208Z,6.11
2023-05-10T05:21:18.460Z,6.08
2023-05-10T05:23:45.743Z,6.11
2023-05-10T05:26:12.659Z,6.15
2023-05-10T05:28:39.447Z,6.20
2023-05-10T05:31:07.129Z,6.03
2023-05-10T05:33:34.527Z,6.13
2023-05-10T05:36:06.092Z,6.28
2023-05-10T05:38:32.892Z,6.24
2023-05-10T05:40:59.579Z,6.17
2023-05-10T05:43:26.302Z,6.47
2023-05-10T05:45:59.002Z,6.09
2023-05-10T05:48:25.894Z,6.24
2023-05-10T05:50:57.581Z,6.07
2023-05-10T05:53:24.869Z,6.21
2023-05-10T05:55:55.881Z,6.54
2023-05-10T05:58:26.463Z,6.66
2023-05-10T06:00:53.725Z,6.80
2023-05-10T06:03:20.515Z,7.02
2023-05-10T06:05:47.629Z,6.80
2023-05-10T06:08:14.266Z,6.83
2023-05-10T06:10:40.917Z,6.89
2023-05-10T06:13:07.669Z,7.08
2023-05-10T06:15:34.379Z,7.23
2023-05-10T06:18:02.263Z,7.36
2023-05-10T06:20:28.956Z,7.16
2023-05-10T06:22:55.750Z,7.24
2023-05-10T06:25:22.384Z,7.30
2023-05-10T06:27:52.617Z,7.27
2023-05-10T06:30:20.492Z,7.38
2023-05-10T06:32:47.381Z,7.76
2023-05-10T06:35:14.150Z,7.97
2023-05-10T06:37:40.966Z,7.92
2023-05-10T06:40:08.597Z,7.67
2023-05-10T06:42:35.439Z,7.67
2023-05-10T06:45:02.228Z,7.66
2023-05-10T06:47:28.966Z,7.81
2023-05-10T06:49:55.897Z,8.14
2023-05-10T06:52:22.642Z,8.23
2023-05-10T06:54:49.365Z,8.45
2023-05-10T06:57:27.616Z,8.76
2023-05-10T06:59:59.323Z,8.89
2023-05-10T07:02:26.136Z,8.76
2023-05-10T07:04:53.566Z,9.20
2023-05-10T07:07:20.380Z,9.55
2023-05-10T07:09:47.287Z,8.95
2023-05-10T07:12:15.330Z,8.94
2023-05-10T07:14:42.689Z,8.66
2023-05-10T07:17:09.633Z,8.78
2023-05-10T07:19:37.056Z,8.72
2023-05-10T07:22:04.058Z,8.70
2023-05-10T07:24:34.196Z,8.42
2023-05-10T07:27:01.087Z,8.83
2023-05-10T07:29:27.889Z,8.68
2023-05-10T07:31:57.096Z,8.80
2023-05-10T07:34:25.635Z,8.62
2023-05-10T07:36:52.811Z,9.19
2023-05-10T07:39:26.571Z,9.27
2023-05-10T07:41:55.003Z,8.80
2023-05-10T07:44:24.018Z,9.30
2023-05-10T07:46:51.866Z,8.81
2023-05-10T07:49:18.657Z,9.24
2023-05-10T07:51:45.338Z,9.15
2023-05-10T07:54:12.382Z,9.07
2023-05-10T07:56:41.082Z,8.76
2023-05-10T07:59:09.359Z,8.73
2023-05-10T08:01:37.013Z,8.79
2023-05-10T08:04:03.831Z,8.69
2023-05-10T08:06:31.338Z,8.79
2023-05-10T08:08:58.762Z,8.84
2023-05-10T08:11:25.984Z,8.86
2023-05-10T08:13:53.037Z,8.68
2023-05-10T08:16:19.959Z,8.53
2023-05-10T08:18:48.201Z,8.76
2023-05-10T08:21:15.952Z,8.95
2023-05-10T08:23:44.758Z,8.98
2023-05-10T08:26:11.928Z,9.18
2023-05-10T08:28:38.885Z,9.37
2023-05-10T08:31:06.646Z,9.42
2023-05-10T08:33:33.731Z,9.96
2023-05-10T08:36:00.544Z,9.69
2023-05-10T08:38:27.200Z,9.85
2023-05-10T08:40:57.698Z,9.46
2023-05-10T08:43:31.265Z,9.95
2023-05-10T08:46:01.699Z,10.29
2023-05-10T08:48:30.238Z,10.89
2023-05-10T08:51:00.413Z,11.29
2023-05-10T08:53:28.303Z,10.94
2023-05-10T08:55:55.472Z,11.22
2023-05-10T08:58:22.462Z,10.71
2023-05-10T09:00:54.071Z,11.51
2023-05-10T09:03:20.903Z,11.69
2023-05-10T09:05:48.046Z,11.53
2023-05-10T09:08:17.396Z,11.72
2023-05-10T09:10:48.973Z,11.68
2023-05-10T09:13:16.750Z,11.88
2023-05-10T09:15:46.168Z,11.90
2023-05-10T09:18:13.463Z,12.26
2023-05-10T09:20:41.227Z,11.77
2023-05-10T09:23:08.167Z,11.35
2023-05-10T09:25:35.128Z,11.68
2023-05-10T09:28:02.244Z,11.69
2023-05-10T09:30:32.441Z,12.10
2023-05-10T09:33:00.733Z,11.40
2023-05-10T09:35:30.274Z,11.61
2023-05-10T09:37:59.297Z,12.16
2023-05-10T09:40:27.551Z,12.45
2023-05-10T09:43:01.493Z,11.51
2023-05-10T09:45:32.605Z,12.34
2023-05-10T09:48:00.507Z,12.67
2023-05-10T09:50:27.801Z,12.62
2023-05-10T09:53:02.482Z,12.25
2023-05-10T09:55:46.940Z,12.20
2023-05-10T09:58:15.131Z,12.12
2023-05-10T10:00:48.871Z,12.95
2023-05-10T10:03:21.163Z,13.20
2023-05-10T10:05:49.021Z,13.42
2023-05-10T10:08:17.672Z,13.05
2023-05-10T10:10:47.605Z,12.76
2023-05-10T10:13:15.182Z,12.96
2023-05-10T10:15:43.382Z,12.89
2023-05-10T10:18:14.461Z,13.60
2023-05-10T10:20:44.834Z,13.23
2023-05-10T10:23:11.516Z,13.56
2023-05-10T10:25:39.375Z,13.22
2023-05-10T10:28:23.060Z,12.97
2023-05-10T10:30:52.913Z,13.14
2023-05-10T10:33:27.699Z,13.28
2023-05-10T10:35:57.027Z,13.51
2023-05-10T10:38:23.955Z,13.51
2023-05-10T10:41:03.791Z,12.98
2023-05-10T10:43:31.341Z,13.60
2023-05-10T10:46:15.614Z,13.73
2023-05-10T10:48:48.154Z,13.93
2023-05-10T10:51:15.291Z,13.73
2023-05-10T10:53:42.255Z,13.53
2023-05-10T10:56:11.395Z,14.00
2023-05-10T10:58:39.590Z,13.96
2023-05-10T11:01:19.956Z,14.11
2023-05-10T11:04:19.513Z,14.01
2023-05-10T11:06:46.324Z,14.04
2023-05-10T11:09:13.984Z,14.19
2023-05-10T11:11:53.082Z,13.64
2023-05-10T11:14:22.959Z,13.08
2023-05-10T11:16:49.741Z,12.85
2023-05-10T11:19:17.884Z,13.16
2023-05-10T11:22:06.415Z,13.35
2023-05-10T11:24:34.503Z,13.33
2023-05-10T11:27:01.918Z,13.50
2023-05-10T11:29:28.625Z,13.46
2023-05-10T11:31:58.891Z,13.45
2023-05-10T11:34:31.413Z,13.55
2023-05-10T11:36:59.095Z,13.76
2023-05-10T11:39:30.180Z,13.88
2023-05-10T11:41:57.752Z,13.73
2023-05-10T11:44:24.778Z,13.65
2023-05-10T11:46:51.696Z,13.47
2023-05-10T11:49:19.015Z,13.42
2023-05-10T11:51:45.728Z,13.47
2023-05-10T11:54:12.564Z,13.15
2023-05-10T11:56:40.546Z,13.42
2023-05-10T11:59:09.084Z,13.35
2023-05-10T12:01:36.383Z,13.25
2023-05-10T12:04:03.298Z,13.20
2023-05-10T12:06:38.259Z,13.16
2023-05-10T12:09:09.217Z,13.50
2023-05-10T12:11:42.541Z,13.57
2023-05-10T12:14:10.941Z,13.19
2023-05-10T12:16:37.702Z,13.17
2023-05-10T12:19:04.502Z,12.74
2023-05-10T12:21:32.465Z,13.10
2023-05-10T12:24:06.365Z,13.24
2023-05-10T12:26:33.694Z,13.03
2023-05-10T12:29:27.083Z,13.35
2023-05-10T12:31:58.839Z,13.56
2023-05-10T12:34:31.082Z,13.81
2023-05-10T12:36:58.110Z,13.56
2023-05-10T12:39:26.005Z,13.63
2023-05-10T12:41:53.858Z,13.35
2023-05-10T12:44:20.596Z,13.13
2023-05-10T12:46:47.230Z,13.00
2023-05-10T12:49:14.069Z,13.35
2023-05-10T12:51:40.874Z,13.00
2023-05-10T12:54:08.036Z,13.39
2023-05-10T12:56:34.742Z,13.24
2023-05-10T12:59:01.494Z,12.86
2023-05-10T13:01:31.845Z,12.32
2023-05-10T13:03:58.613Z,12.40
2023-05-10T13:06:25.297Z,11.93
2023-05-10T13:08:52.820Z,11.95
2023-05-10T13:11:20.904Z,11.51
2023-05-10T13:13:47.636Z,11.50
2023-05-10T13:16:14.359Z,11.43
2023-05-10T13:18:41.065Z,11.45
2023-05-10T13:21:08.524Z,11.62
2023-05-10T13:23:35.652Z,11.43
2023-05-10T13:26:02.349Z,11.12
2023-05-10T13:28:29.024Z,11.33
2023-05-10T13:30:55.750Z,11.12
2023-05-10T13:33:22.482Z,11.19
2023-05-10T13:35:49.447Z,11.29
2023-05-10T13:38:16.075Z,11.21
2023-05-10T13:40:42.781Z,11.26
2023-05-10T13:43:09.459Z,11.10
2023-05-10T13:45:36.079Z,10.90
2023-05-10T13:48:02.811Z,10.96
2023-05-10T13:50:29.567Z,10.83
2023-05-10T13:52:56.541Z,10.78
2023-05-10T13:58:07.289Z,10.60
2023-05-10T14:00:34.003Z,10.65
2023-05-10T14:03:01.631Z,10.53
2023-05-10T14:05:28.585Z,10.29
2023-05-10T14:07:55.758Z,10.29
2023-05-10T14:10:22.379Z,10.35
2023-05-10T14:12:49.003Z,10.47
2023-05-10T14:15:16.077Z,10.43
2023-05-10T14:17:43.024Z,10.34
2023-05-10T14:20:10.160Z,10.32
2023-05-10T14:22:36.843Z,10.26
2023-05-10T14:25:03.751Z,10.00
2023-05-10T14:27:31.298Z,10.06
2023-05-10T14:29:57.961Z,10.01
2023-05-10T14:32:24.666Z,10.08
2023-05-10T14:34:51.401Z,10.06
2023-05-10T14:37:18.042Z,10.06
2023-05-10T14:39:44.741Z,9.81
2023-05-10T14:42:11.595Z,9.82
2023-05-10T14:44:38.355Z,9.77
2023-05-10T14:47:05.043Z,9.85
2023-05-10T14:49:31.835Z,9.98
2023-05-10T14:51:58.582Z,9.88
2023-05-10T14:54:25.179Z,9.92
2023-05-10T14:56:52.314Z,9.99
2023-05-10T14:59:18.987Z,9.93
2023-05-10T15:01:46.334Z,9.85
2023-05-10T15:04:14.527Z,9.80
2023-05-10T15:06:42.041Z,9.83
2023-05-10T15:09:08.786Z,9.75
2023-05-10T15:11:35.701Z,9.65
2023-05-10T15:14:03.100Z,9.60
2023-05-10T15:16:29.869Z,9.36
2023-05-10T15:18:56.684Z,9.15
2023-05-10T15:21:23.379Z,9.26
2023-05-10T15:23:50.067Z,9.31
2023-05-10T15:26:16.744Z,9.14
2023-05-10T15:28:43.954Z,9.20
2023-05-10T15:31:11.598Z,9.21
2023-05-10T15:33:39.629Z,9.18
2023-05-10T15:36:06.532Z,9.20
2023-05-10T15:38:33.120Z,9.00
2023-05-10T15:40:59.716Z,9.12
2023-05-10T15:43:26.511Z,9.10
2023-05-10T15:45:53.179Z,9.04
2023-05-10T15:48:19.874Z,8.94
2023-05-10T15:50:46.644Z,8.97
2023-05-10T15:53:13.404Z,8.95
2023-05-10T15:55:40.277Z,8.89
2023-05-10T15:58:06.997Z,8.86
2023-05-10T16:00:33.778Z,8.90
2023-05-10T16:03:00.886Z,9.03
2023-05-10T16:05:31.970Z,9.02
2023-05-10T16:07:58.657Z,8.98
2023-05-10T16:10:25.345Z,8.95
2023-05-10T16:12:52.057Z,8.83
2023-05-10T16:15:19.004Z,8.72
2023-05-10T16:17:46.042Z,8.77
2023-05-10T16:20:12.890Z,8.70
2023-05-10T16:22:39.688Z,8.81
2023-05-10T16:25:06.718Z,8.59
2023-05-10T16:27:33.832Z,8.60
2023-05-10T16:30:00.622Z,8.62
2023-05-10T16:32:27.324Z,8.43
2023-05-10T16:34:54.082Z,8.41
2023-05-10T16:37:20.986Z,8.27
2023-05-10T16:39:48.092Z,8.20
2023-05-10T16:42:14.780Z,8.06
2023-05-10T16:44:41.423Z,8.13
2023-05-10T16:47:08.549Z,8.17
2023-05-10T16:52:03.479Z,8.18
2023-05-10T16:54:30.193Z,8.20
2023-05-10T16:56:56.951Z,8.05
2023-05-10T16:59:23.646Z,7.89
2023-05-10T17:01:50.458Z,7.99
2023-05-10T17:04:17.901Z,7.96
2023-05-10T17:06:44.607Z,7.89
2023-05-10T17:09:12.232Z,7.82
2023-05-10T17:11:38.895Z,7.86
2023-05-10T17:14:05.548Z,7.99
2023-05-10T17:16:32.209Z,7.93
2023-05-10T17:18:59.067Z,7.98
2023-05-10T17:21:26.256Z,7.99
2023-05-10T17:23:52.975Z,8.05
2023-05-10T17:26:19.812Z,7.91
2023-05-10T17:28:46.485Z,7.84
2023-05-10T17:31:13.224Z,8.02
2023-05-10T17:33:40.118Z,7.98
2023-05-10T17:36:07.082Z,7.96
2023-05-10T17:38:33.773Z,7.94
2023-05-10T17:41:00.836Z,8.02
2023-05-10T17:43:27.574Z,7.96
2023-05-10T17:45:54.246Z,7.99
2023-05-10T17:48:21.009Z,7.88
2023-05-10T17:50:54.349Z,8.17
2023-05-10T17:53:21.045Z,8.09
2023-05-10T17:55:47.797Z,7.99
2023-05-10T17:58:14.474Z,7.98
2023-05-10T18:00:41.192Z,7.78
2023-05-10T18:03:07.964Z,7.78
2023-05-10T18:05:38.892Z,7.82
2023-05-10T18:08:07.352Z,7.81
2023-05-10T18:10:34.053Z,7.96
2023-05-10T18:13:02.448Z,7.84
2023-05-10T18:15:29.293Z,7.83
2023-05-10T18:17:56.827Z,7.67
2023-05-10T18:20:23.914Z,7.67
2023-05-10T18:22:50.759Z,7.64
2023-05-10T18:25:17.840Z,7.57
2023-05-10T18:27:44.819Z,7.65
2023-05-10T18:30:12.664Z,7.82
2023-05-10T18:32:39.821Z,7.79
2023-05-10T18:35:08.195Z,7.63
2023-05-10T18:37:35.867Z,7.63
2023-05-10T18:40:02.814Z,7.54
2023-05-10T18:42:29.822Z,7.42
2023-05-10T18:44:56.494Z,7.50
2023-05-10T18:47:23.253Z,7.68
2023-05-10T18:49:50.007Z,7.45
2023-05-10T18:52:17.110Z,7.42
2023-05-10T18:54:43.850Z,7.49
2023-05-10T18:57:12.516Z,7.50
2023-05-10T18:59:39.310Z,7.51
2023-05-10T19:02:06.072Z,7.65
2023-05-10T19:04:32.843Z,7.47
2023-05-10T19:07:02.058Z,7.51
2023-05-10T19:09:29.118Z,7.63
2023-05-10T19:11:56.086Z,7.62
2023-05-10T19:14:23.010Z,7.50
2023-05-10T19:16:52.260Z,7.34
2023-05-10T19:19:19.795Z,7.48
2023-05-10T19:21:46.785Z,7.34
2023-05-10T19:24:13.434Z,7.65
2023-05-10T19:26:40.409Z,7.75
2023-05-10T19:29:07.780Z,7.68
2023-05-10T19:31:35.397Z,7.53
2023-05-10T19:34:05.920Z,7.49
2023-05-10T19:36:34.451Z,7.59
2023-05-10T19:39:01.529Z,7.54
2023-05-10T19:41:28.666Z,7.71
2023-05-10T19:43:55.310Z,7.68
2023-05-10T19:46:22.249Z,7.79
2023-05-10T19:48:48.996Z,7.84
2023-05-10T19:51:15.785Z,7.54
2023-05-10T19:53:45.127Z,7.38
2023-05-10T19:56:12.741Z,7.36
2023-05-10T19:58:39.825Z,7.44
2023-05-10T20:01:07.842Z,7.55
2023-05-10T20:03:36.092Z,7.62
2023-05-10T20:06:04.045Z,7.52
2023-05-10T20:08:31.090Z,7.49
2023-05-10T20:10:59.173Z,7.60
2023-05-10T20:13:26.010Z,7.71
2023-05-10T20:15:56.233Z,7.79
2023-05-10T20:18:23.268Z,7.84
2023-05-10T20:20:55.305Z,7.92
2023-05-10T20:23:22.356Z,7.95
2023-05-10T20:25:49.465Z,7.84
2023-05-10T20:28:22.983Z,7.96
2023-05-10T20:30:53.242Z,8.09
2023-05-10T20:33:20.235Z,8.08
2023-05-10T20:35:47.052Z,8.07
2023-05-10T20:38:13.862Z,8.10
2023-05-10T20:40:40.496Z,8.08
2023-05-10T20:43:07.221Z,8.10
2023-05-10T20:45:34.728Z,8.02
2023-05-10T20:48:02.105Z,7.91
2023-05-10T20:50:28.842Z,8.06
2023-05-10T20:52:55.521Z,7.88
2023-05-10T20:55:22.201Z,7.83
2023-05-10T20:57:48.898Z,7.81
2023-05-10T21:00:16.162Z,7.68
2023-05-10T21:02:45.255Z,7.37
2023-05-10T21:05:12.389Z,7.18
2023-05-10T21:07:39.484Z,7.09
2023-05-10T21:10:11.191Z,7.19
2023-05-10T21:12:37.975Z,7.34
2023-05-10T21:15:05.006Z,7.37
2023-05-10T21:17:31.687Z,7.53
2023-05-10T21:19:58.454Z,7.55
2023-05-10T21:22:25.195Z,7.43
2023-05-10T21:24:51.890Z,7.60
2023-05-10T21:27:19.502Z,7.69
2023-05-10T21:29:46.186Z,7.63
2023-05-10T21:32:12.882Z,7.65
2023-05-10T21:34:39.716Z,7.46
2023-05-10T21:37:06.493Z,7.57
2023-05-10T21:39:33.111Z,7.47
2023-05-10T21:42:00.423Z,7.58
2023-05-10T21:44:27.070Z,7.60
2023-05-10T21:46:53.699Z,7.52
2023-05-10T21:49:20.327Z,7.54
2023-05-10T21:51:47.382Z,7.48
2023-05-10T21:54:14.356Z,7.38
2023-05-10T21:56:41.067Z,7.48
2023-05-10T21:59:07.754Z,7.33
2023-05-10T22:01:34.497Z,7.23
2023-05-10T22:04:01.254Z,7.30
2023-05-10T22:06:27.890Z,7.36
2023-05-10T22:08:54.605Z,7.34
2023-05-10T22:11:21.911Z,7.14
2023-05-10T22:13:48.525Z,7.19
2023-05-10T22:16:15.672Z,7.37
2023-05-10T22:18:43.449Z,7.15
2023-05-10T22:21:10.600Z,7.00
2023-05-10T22:23:37.821Z,7.01
2023-05-10T22:26:04.930Z,7.13
2023-05-10T22:28:31.541Z,7.22
2023-05-10T22:30:58.214Z,7.15
2023-05-10T22:33:24.987Z,7.14
2023-05-10T22:35:51.684Z,7.05
2023-05-10T22:38:18.310Z,7.09
2023-05-10T22:40:45.010Z,7.17
2023-05-10T22:43:11.960Z,7.11
2023-05-10T22:45:38.753Z,7.14
2023-05-10T22:48:05.657Z,7.24
2023-05-10T22:50:32.338Z,7.25
2023-05-10T22:52:58.954Z,6.94
2023-05-10T22:55:25.767Z,6.84
2023-05-10T22:57:53.814Z,6.75
2023-05-10T23:00:20.920Z,6.82
2023-05-10T23:02:47.876Z,6.89
2023-05-10T23:05:14.577Z,6.86
2023-05-10T23:07:41.245Z,6.88
2023-05-10T23:10:08.397Z,6.89
2023-05-10T23:12:35.046Z,6.74
2023-05-10T23:15:02.147Z,6.61
2023-05-10T23:17:28.798Z,6.50
2023-05-10T23:19:55.655Z,6.46
2023-05-10T23:22:22.292Z,6.30
2023-05-10T23:24:49.081Z,6.14
2023-05-10T23:27:16.565Z,6.25
2023-05-10T23:29:43.279Z,6.35
2023-05-10T23:32:10.139Z,6.27
2023-05-10T23:34:36.956Z,6.15
2023-05-10T23:37:03.657Z,6.22
2023-05-10T23:39:30.420Z,6.23
2023-05-10T23:41:57.081Z,6.07
2023-05-10T23:44:23.756Z,6.17
2023-05-10T23:46:50.681Z,6.29
2023-05-10T23:49:17.474Z,6.04
2023-05-10T23:51:44.139Z,5.97
2023-05-10T23:54:10.846Z,6.01
2023-05-10T23:56:37.589Z,6.12
2023-05-10T23:59:05.985Z,6.08
